Time;durP1;ratioP1;P1;durP2;ratioP2;P2;SDS_P1;SDS_P2;PMS_P1;PMS_P2;Temp;Humidity;BMP_temperature;BMP_pressure;BME280_temperature;BME280_humidity;BME280_pressure;Samples;Min_cycle;Max_cycle;Signal;HPM_P1;HPM_P2
2022/10/24 00:04:11;;;;;;;;;;;;;;;;;;5270073;23;20084;-86
2022/10/24 00:07:01;;;;;;;;;;;;;;;;;;5627366;22;19909;-87
2022/10/24 01:06:29;;;;;;;;;;;;;;;;;;5906973;23;19921;-86
2022/10/24 01:23:28;;;;;;;;;;;;;;;;;;5633421;23;19911;-84
2022/10/24 01:26:18;;;;;;;;;;;;;;;;;;5299854;23;19973;-86
2022/10/24 01:28:52;;;;;;;;;;;;;;;;;;4966374;28;19934;-85
2022/10/24 01:31:23;;;;;;;;;;;;;;;;;;4970455;28;19927;-85
2022/10/24 01:34:11;;;;;;;;;;;;;;;;;;5597667;23;19946;-84
2022/10/24 01:36:44;;;;;;;;;;;;;;;;;;4947035;28;19918;-86
2022/10/24 01:41:58;;;;;;;;;;;;;;;;;;5124941;23;19911;-85
2022/10/24 01:44:53;;;;;;;;;;;;;;;;;;5668582;23;19911;-84
2022/10/24 01:47:22;;;;;;;;;;;;;;;;;;5410945;23;19987;-85
2022/10/24 01:50:19;;;;;;;;;;;;;;;;;;5037502;23;19990;-86
2022/10/24 01:53:27;;;;;;;;;;;;;;;;;;5088141;23;19910;-85
2022/10/24 01:56:01;;;;;;;;;;;;;;;;;;5001025;28;19902;-85
2022/10/24 02:01:44;;;;;;;;;;;;;;;;;;4941313;28;19927;-85
2022/10/24 02:06:59;;;;;;;;;;;;;;;;;;5198685;23;19919;-85
2022/10/24 02:09:32;;;;;;;;;;;;;;;;;;5241459;23;20269;-83
2022/10/24 02:12:14;;;;;;;;;;;;;;;;;;4909190;29;19911;-85
2022/10/24 02:15:00;;;;;;;;;;;;;;;;;;5009422;23;19927;-85
2022/10/24 02:17:41;;;;;;;;;;;;;;;;;;5017667;23;19922;-84
2022/10/24 02:20:25;;;;;;;;;;;;;;;;;;5730960;23;19924;-84
2022/10/24 02:23:00;;;;;;;;;;;;;;;;;;4929938;28;19926;-86
2022/10/24 02:25:31;;;;;;;;;;;;;;;;;;4925773;29;19925;-84
2022/10/24 02:28:01;;;;;;;;;;;;;;;;;;4925973;29;19915;-85
2022/10/24 02:30:34;;;;;;;;;;;;;;;;;;4926066;29;19919;-86
2022/10/24 02:33:14;;;;;;;;;;;;;;;;;;4924831;28;19931;-85
2022/10/24 02:35:43;;;;;;;;;;;;;;;;;;5110015;23;19938;-85
2022/10/24 02:38:19;;;;;;;;;;;;;;;;;;4921937;29;19904;-86
2022/10/24 02:40:54;;;;;;;;;;;;;;;;;;4908074;29;19904;-86
2022/10/24 02:43:21;;;;;;;;;;;;;;;;;;4906023;29;19915;-86
2022/10/24 02:46:01;;;;;;;;;;;;;;;;;;4909361;29;19923;-88
2022/10/24 02:48:42;;;;;;;;;;;;;;;;;;4910070;29;19987;-86
2022/10/24 02:51:35;;;;;;;;;;;;;;;;;;4923014;29;19919;-87
2022/10/24 02:54:32;;;;;;;;;;;;;;;;;;4896380;29;19911;-86
2022/10/24 02:59:41;;;;;;;;;;;;;;;;;;4939982;28;19927;-86
2022/10/24 03:02:41;;;;;;;;;;;;;;;;;;5291588;23;19970;-86
2022/10/24 03:05:12;;;;;;;;;;;;;;;;;;4957178;28;20016;-86
2022/10/24 03:10:45;;;;;;;;;;;;;;;;;;5467465;23;19974;-87
2022/10/24 03:16:03;;;;;;;;;;;;;;;;;;4991203;23;20309;-90
2022/10/24 03:18:28;;;;;;;;;;;;;;;;;;4956637;29;19915;-91
2022/10/24 03:20:54;;;;;;;;;;;;;;;;;;4950458;29;19921;-92
2022/10/24 03:23:20;;;;;;;;;;;;;;;;;;4946495;29;19914;-90
2022/10/24 03:25:46;;;;;;;;;;;;;;;;;;4931539;29;20433;-92
2022/10/24 03:28:11;;;;;;;;;;;;;;;;;;4942470;29;19953;-93
2022/10/24 03:30:37;;;;;;;;;;;;;;;;;;4921740;29;19911;-93
2022/10/24 03:33:02;;;;;;;;;;;;;;;;;;4904820;29;19919;-94
2022/10/24 03:35:28;;;;;;;;;;;;;;;;;;4921425;29;19914;-92
2022/10/24 03:37:53;;;;;;;;;;;;;;;;;;4923681;29;19921;-92
2022/10/24 03:40:19;;;;;;;;;;;;;;;;;;4926208;29;19915;-91
2022/10/24 03:42:44;;;;;;;;;;;;;;;;;;4928572;29;19963;-92
2022/10/24 03:45:09;;;;;;;;;;;;;;;;;;4926608;29;19919;-93
2022/10/24 03:47:35;;;;;;;;;;;;;;;;;;4934633;29;19922;-90
2022/10/24 03:50:00;;;;;;;;;;;;;;;;;;4938745;29;19914;-91
2022/10/24 03:52:26;;;;;;;;;;;;;;;;;;4935420;29;19919;-92
2022/10/24 03:54:51;;;;;;;;;;;;;;;;;;4934555;29;19915;-92
2022/10/24 03:57:17;;;;;;;;;;;;;;;;;;4939449;28;19915;-90
2022/10/24 03:59:45;;;;;;;;;;;;;;;;;;4938603;29;19915;-91
2022/10/24 04:02:12;;;;;;;;;;;;;;;;;;4934660;29;19921;-91
2022/10/24 04:04:38;;;;;;;;;;;;;;;;;;4951677;29;19915;-91
2022/10/24 04:07:04;;;;;;;;;;;;;;;;;;4944285;29;19915;-92
2022/10/24 04:09:30;;;;;;;;;;;;;;;;;;4923878;29;19923;-91
2022/10/24 04:11:55;;;;;;;;;;;;;;;;;;4938878;29;20009;-91
2022/10/24 04:14:21;;;;;;;;;;;;;;;;;;4941720;29;19994;-94
2022/10/24 04:16:49;;;;;;;;;;;;;;;;;;4944724;29;19942;-92
2022/10/24 04:19:17;;;;;;;;;;;;;;;;;;4946082;29;19950;-92
2022/10/24 04:21:42;;;;;;;;;;;;;;;;;;4944418;29;19915;-91
2022/10/24 04:24:08;;;;;;;;;;;;;;;;;;4958933;29;19925;-90
2022/10/24 04:26:33;;;;;;;;;;;;;;;;;;4942897;29;20218;-90
2022/10/24 04:28:59;;;;;;;;;;;;;;;;;;4935281;29;19966;-90
2022/10/24 04:31:24;;;;;;;;;;;;;;;;;;4929934;29;19937;-91
2022/10/24 04:33:50;;;;;;;;;;;;;;;;;;4927407;29;19919;-91
2022/10/24 04:36:17;;;;;;;;;;;;;;;;;;4925577;29;19914;-91
2022/10/24 04:38:43;;;;;;;;;;;;;;;;;;4927443;29;20001;-91
2022/10/24 04:41:08;;;;;;;;;;;;;;;;;;4915190;29;19925;-94
2022/10/24 04:43:33;;;;;;;;;;;;;;;;;;4910346;29;20310;-92
2022/10/24 04:46:01;;;;;;;;;;;;;;;;;;4913730;29;19919;-95
2022/10/24 04:48:26;;;;;;;;;;;;;;;;;;4915294;29;19911;-95
2022/10/24 04:50:52;;;;;;;;;;;;;;;;;;4917469;29;19906;-93
2022/10/24 04:53:17;;;;;;;;;;;;;;;;;;4921903;29;20020;-92
2022/10/24 04:55:43;;;;;;;;;;;;;;;;;;4920043;29;19946;-94
2022/10/24 04:58:08;;;;;;;;;;;;;;;;;;4933726;29;19937;-93
2022/10/24 05:00:34;;;;;;;;;;;;;;;;;;4920272;29;19915;-94
2022/10/24 05:02:59;;;;;;;;;;;;;;;;;;4909812;29;19981;-93
2022/10/24 05:05:25;;;;;;;;;;;;;;;;;;4909561;29;19922;-94
2022/10/24 05:07:50;;;;;;;;;;;;;;;;;;4909665;29;19915;-94
2022/10/24 05:10:16;;;;;;;;;;;;;;;;;;4911960;29;19937;-93
2022/10/24 05:12:42;;;;;;;;;;;;;;;;;;4907867;29;19934;-95
2022/10/24 05:15:08;;;;;;;;;;;;;;;;;;4908158;29;19955;-94
2022/10/24 05:17:36;;;;;;;;;;;;;;;;;;4909411;29;19915;-94
2022/10/24 05:20:01;;;;;;;;;;;;;;;;;;4924691;29;20399;-95
2022/10/24 05:22:27;;;;;;;;;;;;;;;;;;4917557;29;20298;-94
2022/10/24 05:24:52;;;;;;;;;;;;;;;;;;4935127;29;19926;-93
2022/10/24 05:27:23;;;;;;;;;;;;;;;;;;4938976;29;19915;-93
2022/10/24 05:29:48;;;;;;;;;;;;;;;;;;4931345;29;19922;-92
2022/10/24 05:32:14;;;;;;;;;;;;;;;;;;4928888;28;20405;-95
2022/10/24 05:34:39;;;;;;;;;;;;;;;;;;4929231;29;19918;-94
2022/10/24 05:37:05;;;;;;;;;;;;;;;;;;4928090;29;19915;-94
2022/10/24 05:39:33;;;;;;;;;;;;;;;;;;4926484;29;19970;-93
2022/10/24 05:42:02;;;;;;;;;;;;;;;;;;4908860;29;19914;-93
2022/10/24 05:44:29;;;;;;;;;;;;;;;;;;4909303;29;19958;-94
2022/10/24 05:46:57;;;;;;;;;;;;;;;;;;4909391;29;19937;-95
2022/10/24 05:49:23;;;;;;;;;;;;;;;;;;4910899;29;20310;-93
2022/10/24 05:51:53;;;;;;;;;;;;;;;;;;4920129;29;19914;-91
2022/10/24 05:54:19;;;;;;;;;;;;;;;;;;4925383;29;20410;-92
2022/10/24 05:56:45;;;;;;;;;;;;;;;;;;4920976;29;19915;-91
2022/10/24 05:59:11;;;;;;;;;;;;;;;;;;4938477;29;19914;-94
2022/10/24 06:01:40;;;;;;;;;;;;;;;;;;4932962;29;20732;-95
2022/10/24 06:04:05;;;;;;;;;;;;;;;;;;4929518;29;19918;-94
2022/10/24 06:06:31;;;;;;;;;;;;;;;;;;4928260;29;19918;-95
2022/10/24 06:08:56;;;;;;;;;;;;;;;;;;4928578;29;19921;-96
2022/10/24 06:11:22;;;;;;;;;;;;;;;;;;4930012;29;19910;-96
2022/10/24 06:13:50;;;;;;;;;;;;;;;;;;4927795;29;19957;-95
2022/10/24 06:16:16;;;;;;;;;;;;;;;;;;4912252;29;20010;-95
2022/10/24 06:18:42;;;;;;;;;;;;;;;;;;4926220;29;20294;-95
2022/10/24 06:21:07;;;;;;;;;;;;;;;;;;4910115;29;19946;-96
2022/10/24 06:23:35;;;;;;;;;;;;;;;;;;4914908;29;20013;-95
2022/10/24 06:26:03;;;;;;;;;;;;;;;;;;4912467;29;19955;-95
2022/10/24 06:28:31;;;;;;;;;;;;;;;;;;4925096;29;19910;-95
2022/10/24 06:30:57;;;;;;;;;;;;;;;;;;4924657;29;19915;-95
2022/10/24 06:33:33;;;;;;;;;;;;;;;;;;4913738;29;19918;-96
2022/10/24 06:36:03;;;;;;;;;;;;;;;;;;4908818;29;20290;-96
2022/10/24 06:38:29;;;;;;;;;;;;;;;;;;4909578;29;19919;-96
2022/10/24 06:40:54;;;;;;;;;;;;;;;;;;4912595;29;19974;-96
2022/10/24 06:46:22;;;;;;;;;;;;;;;;;;4918595;29;20010;-95
2022/10/24 06:48:47;;;;;;;;;;;;;;;;;;4907322;29;20375;-96
2022/10/24 06:51:15;;;;;;;;;;;;;;;;;;4921042;29;19965;-96
2022/10/24 06:53:41;;;;;;;;;;;;;;;;;;4922700;29;20412;-95
2022/10/24 06:56:06;;;;;;;;;;;;;;;;;;4928125;29;19914;-96
2022/10/24 06:58:32;;;;;;;;;;;;;;;;;;4930281;29;20342;-96
2022/10/24 07:00:58;;;;;;;;;;;;;;;;;;4931919;29;19949;-96
2022/10/24 07:03:26;;;;;;;;;;;;;;;;;;4929028;29;19922;-95
2022/10/24 07:05:52;;;;;;;;;;;;;;;;;;4927342;29;20378;-95
2022/10/24 07:08:18;;;;;;;;;;;;;;;;;;4929033;29;20001;-94
2022/10/24 07:10:47;;;;;;;;;;;;;;;;;;4930610;29;19914;-94
2022/10/24 07:13:12;;;;;;;;;;;;;;;;;;4929623;29;19921;-92
2022/10/24 07:15:41;;;;;;;;;;;;;;;;;;4936161;29;19946;-90
2022/10/24 07:18:07;;;;;;;;;;;;;;;;;;4928058;28;19987;-90
2022/10/24 07:20:38;;;;;;;;;;;;;;;;;;4925674;29;19926;-91
2022/10/24 07:23:04;;;;;;;;;;;;;;;;;;4925848;28;19903;-90
2022/10/24 07:25:33;;;;;;;;;;;;;;;;;;4928398;29;19907;-89
2022/10/24 07:27:59;;;;;;;;;;;;;;;;;;4912738;29;19915;-92
2022/10/24 07:30:25;;;;;;;;;;;;;;;;;;4913962;29;20005;-91
2022/10/24 07:32:54;;;;;;;;;;;;;;;;;;4931689;29;20013;-92
2022/10/24 07:35:19;;;;;;;;;;;;;;;;;;4931653;29;19915;-91
2022/10/24 07:37:45;;;;;;;;;;;;;;;;;;4928553;29;20311;-92
2022/10/24 07:40:10;;;;;;;;;;;;;;;;;;4917597;29;19966;-91
2022/10/24 07:42:36;;;;;;;;;;;;;;;;;;4927168;28;19930;-93
2022/10/24 07:45:03;;;;;;;;;;;;;;;;;;4925877;29;19922;-90
2022/10/24 07:47:28;;;;;;;;;;;;;;;;;;4920956;29;19978;-92
2022/10/24 07:49:54;;;;;;;;;;;;;;;;;;4918065;29;19915;-92
2022/10/24 07:52:19;;;;;;;;;;;;;;;;;;5144641;23;19923;-91
2022/10/24 07:54:45;;;;;;;;;;;;;;;;;;4922657;29;19983;-92
2022/10/24 07:57:10;;;;;;;;;;;;;;;;;;4924588;29;19942;-92
2022/10/24 07:59:36;;;;;;;;;;;;;;;;;;4922050;29;19966;-92
2022/10/24 08:02:05;;;;;;;;;;;;;;;;;;4913671;29;20395;-94
2022/10/24 08:04:33;;;;;;;;;;;;;;;;;;4895927;29;19915;-93
2022/10/24 08:06:59;;;;;;;;;;;;;;;;;;4907581;29;19923;-91
2022/10/24 08:09:25;;;;;;;;;;;;;;;;;;4903057;29;19919;-91
2022/10/24 08:12:06;;;;;;;;;;;;;;;;;;4905261;28;19919;-92
2022/10/24 08:14:35;;;;;;;;;;;;;;;;;;4907861;29;19928;-93
2022/10/24 08:17:00;;;;;;;;;;;;;;;;;;4897674;29;19943;-93
2022/10/24 08:19:26;;;;;;;;;;;;;;;;;;4911784;29;19926;-93
2022/10/24 08:21:52;;;;;;;;;;;;;;;;;;4893356;29;19919;-94
2022/10/24 08:24:17;;;;;;;;;;;;;;;;;;4909440;29;19926;-92
2022/10/24 08:26:46;;;;;;;;;;;;;;;;;;4897871;29;19903;-94
2022/10/24 08:29:20;;;;;;;;;;;;;;;;;;4913431;29;19926;-91
2022/10/24 08:31:49;;;;;;;;;;;;;;;;;;4892561;29;19940;-92
2022/10/24 08:34:15;;;;;;;;;;;;;;;;;;4903036;29;19919;-96
2022/10/24 08:36:41;;;;;;;;;;;;;;;;;;4918842;29;19915;-94
2022/10/24 08:39:09;;;;;;;;;;;;;;;;;;4893423;29;19987;-96
2022/10/24 08:41:34;;;;;;;;;;;;;;;;;;4906148;29;19952;-96
2022/10/24 08:44:00;;;;;;;;;;;;;;;;;;4890050;29;19962;-94
2022/10/24 08:46:54;;;;;;;;;;;;;;;;;;4912610;29;20001;-93
2022/10/24 08:49:19;;;;;;;;;;;;;;;;;;4889671;29;20349;-94
2022/10/24 08:51:45;;;;;;;;;;;;;;;;;;4937049;29;19915;-94
2022/10/24 08:54:16;;;;;;;;;;;;;;;;;;4889629;29;20371;-95
2022/10/24 08:57:04;;;;;;;;;;;;;;;;;;4897172;29;19919;-94
2022/10/24 08:59:29;;;;;;;;;;;;;;;;;;4921403;29;19957;-93
2022/10/24 09:01:55;;;;;;;;;;;;;;;;;;4919878;29;20009;-92
2022/10/24 09:04:24;;;;;;;;;;;;;;;;;;4949448;29;19982;-90
2022/10/24 09:06:49;;;;;;;;;;;;;;;;;;4952471;29;19923;-90
2022/10/24 09:09:15;;;;;;;;;;;;;;;;;;4933759;29;19915;-92
2022/10/24 09:11:40;;;;;;;;;;;;;;;;;;4940776;29;20298;-93
2022/10/24 09:14:05;;;;;;;;;;;;;;;;;;4948455;23;19927;-83
2022/10/24 09:16:31;;;;;;;;;;;;;;;;;;4940930;29;19919;-82
2022/10/24 09:18:56;;;;;;;;;;;;;;;;;;4941030;29;20328;-81
2022/10/24 09:21:22;;;;;;;;;;;;;;;;;;4940944;29;19915;-79
2022/10/24 09:23:47;;;;;;;;;;;;;;;;;;4942798;29;19961;-83
2022/10/24 09:26:13;;;;;;;;;;;;;;;;;;4928929;29;20374;-82
2022/10/24 09:28:38;;;;;;;;;;;;;;;;;;4929111;29;19915;-84
2022/10/24 09:31:04;;;;;;;;;;;;;;;;;;4943311;29;20398;-85
2022/10/24 09:33:29;;;;;;;;;;;;;;;;;;4906283;29;20390;-84
2022/10/24 09:35:55;;;;;;;;;;;;;;;;;;4924788;29;19916;-85
2022/10/24 09:38:20;;;;;;;;;;;;;;;;;;4921833;29;20385;-86
2022/10/24 09:40:46;;;;;;;;;;;;;;;;;;4930536;29;19961;-83
2022/10/24 09:43:11;;;;;;;;;;;;;;;;;;4944921;29;19982;-85
2022/10/24 09:45:37;;;;;;;;;;;;;;;;;;4938633;29;19915;-75
2022/10/24 09:48:02;;;;;;;;;;;;;;;;;;4919911;29;19915;-76
2022/10/24 09:50:28;;;;;;;;;;;;;;;;;;4919333;29;19915;-75
2022/10/24 09:52:53;;;;;;;;;;;;;;;;;;4918846;29;20378;-76
2022/10/24 09:55:19;;;;;;;;;;;;;;;;;;4935164;29;20294;-75
2022/10/24 09:57:44;;;;;;;;;;;;;;;;;;4935971;29;20362;-76
2022/10/24 10:00:10;;;;;;;;;;;;;;;;;;4936313;29;20356;-76
2022/10/24 10:02:36;;;;;;;;;;;;;;;;;;4930687;29;20010;-77
2022/10/24 10:05:02;;;;;;;;;;;;;;;;;;4935626;29;19973;-75
2022/10/24 10:07:29;;;;;;;;;;;;;;;;;;4934988;29;19923;-78
2022/10/24 10:09:55;;;;;;;;;;;;;;;;;;4914825;29;20330;-77
2022/10/24 10:12:20;;;;;;;;;;;;;;;;;;4918743;29;19938;-76
2022/10/24 10:14:46;;;;;;;;;;;;;;;;;;4918197;29;20382;-78
2022/10/24 10:17:11;;;;;;;;;;;;;;;;;;4919329;29;19941;-77
2022/10/24 10:19:37;;;;;;;;;;;;;;;;;;4934584;29;20314;-79
2022/10/24 10:22:03;;;;;;;;;;;;;;;;;;4918992;29;19922;-79
2022/10/24 10:24:28;;;;;;;;;;;;;;;;;;4918449;29;19994;-77
2022/10/24 10:26:54;;;;;;;;;;;;;;;;;;4918455;29;20426;-77
2022/10/24 10:29:19;;;;;;;;;;;;;;;;;;4934407;29;19915;-76
2022/10/24 10:31:45;;;;;;;;;;;;;;;;;;4918842;29;20425;-76
2022/10/24 10:34:11;;;;;;;;;;;;;;;;;;4933925;29;19919;-77
2022/10/24 10:36:36;;;;;;;;;;;;;;;;;;4935711;29;20286;-84
2022/10/24 10:39:02;;;;;;;;;;;;;;;;;;4905833;29;20379;-84
2022/10/24 10:41:27;;;;;;;;;;;;;;;;;;4918627;29;19915;-83
2022/10/24 10:43:52;;;;;;;;;;;;;;;;;;4929263;29;20315;-83
2022/10/24 10:46:18;;;;;;;;;;;;;;;;;;4899762;29;20292;-83
2022/10/24 10:48:43;;;;;;;;;;;;;;;;;;4915382;29;19982;-83
2022/10/24 10:51:09;;;;;;;;;;;;;;;;;;4915566;29;19920;-85
2022/10/24 10:53:34;;;;;;;;;;;;;;;;;;4916323;29;19919;-85
2022/10/24 10:55:59;;;;;;;;;;;;;;;;;;4922377;29;19938;-84
2022/10/24 10:58:25;;;;;;;;;;;;;;;;;;4937462;29;19915;-84
2022/10/24 11:00:50;;;;;;;;;;;;;;;;;;4936492;29;19915;-84
2022/10/24 11:03:16;;;;;;;;;;;;;;;;;;4919530;29;19915;-84
2022/10/24 11:05:43;;;;;;;;;;;;;;;;;;4903839;29;20282;-84
2022/10/24 11:08:09;;;;;;;;;;;;;;;;;;4934305;29;19921;-84
2022/10/24 11:10:34;;;;;;;;;;;;;;;;;;4919054;29;19915;-84
2022/10/24 11:13:00;;;;;;;;;;;;;;;;;;4918739;29;19918;-83
2022/10/24 11:15:25;;;;;;;;;;;;;;;;;;4918958;29;20302;-82
2022/10/24 11:17:51;;;;;;;;;;;;;;;;;;4934190;29;19919;-82
2022/10/24 11:20:16;;;;;;;;;;;;;;;;;;4918314;29;19965;-82
2022/10/24 11:22:42;;;;;;;;;;;;;;;;;;4918151;29;19962;-83
2022/10/24 11:25:10;;;;;;;;;;;;;;;;;;4936193;29;19915;-82
2022/10/24 11:27:36;;;;;;;;;;;;;;;;;;4921441;29;20290;-83
2022/10/24 11:30:01;;;;;;;;;;;;;;;;;;4917143;29;19919;-80
2022/10/24 11:32:29;;;;;;;;;;;;;;;;;;4903828;29;19922;-84
2022/10/24 11:34:55;;;;;;;;;;;;;;;;;;4887064;29;19915;-82
2022/10/24 11:37:20;;;;;;;;;;;;;;;;;;4902092;29;20118;-84
2022/10/24 11:39:45;;;;;;;;;;;;;;;;;;4917942;29;20002;-84
2022/10/24 11:42:11;;;;;;;;;;;;;;;;;;4903731;29;19947;-82
2022/10/24 11:44:36;;;;;;;;;;;;;;;;;;4900494;29;19954;-81
2022/10/24 11:47:02;;;;;;;;;;;;;;;;;;4916269;29;19966;-83
2022/10/24 11:49:27;;;;;;;;;;;;;;;;;;4917163;29;19911;-83
2022/10/24 11:51:53;;;;;;;;;;;;;;;;;;4886584;29;19962;-83
2022/10/24 11:54:18;;;;;;;;;;;;;;;;;;4916367;29;19922;-83
2022/10/24 11:56:44;;;;;;;;;;;;;;;;;;4915663;29;19915;-75
2022/10/24 11:59:09;;;;;;;;;;;;;;;;;;4915129;29;19938;-76
2022/10/24 12:01:35;;;;;;;;;;;;;;;;;;4901951;29;19915;-85
2022/10/24 12:04:00;;;;;;;;;;;;;;;;;;4911617;29;19923;-82
2022/10/24 12:06:25;;;;;;;;;;;;;;;;;;4887720;29;19915;-84
2022/10/24 12:08:51;;;;;;;;;;;;;;;;;;4912453;29;19919;-84
2022/10/24 12:11:16;;;;;;;;;;;;;;;;;;4938129;29;20335;-83
2022/10/24 12:13:42;;;;;;;;;;;;;;;;;;4918824;29;19923;-83
2022/10/24 12:16:07;;;;;;;;;;;;;;;;;;4917318;29;19938;-84
2022/10/24 12:18:33;;;;;;;;;;;;;;;;;;4919498;29;20401;-84
2022/10/24 12:20:58;;;;;;;;;;;;;;;;;;4922956;29;19922;-84
2022/10/24 12:23:26;;;;;;;;;;;;;;;;;;4921690;29;19915;-85
2022/10/24 12:25:51;;;;;;;;;;;;;;;;;;4906833;29;19979;-85
2022/10/24 12:28:17;;;;;;;;;;;;;;;;;;4906958;29;20346;-84
2022/10/24 12:30:42;;;;;;;;;;;;;;;;;;4938440;29;19915;-85
2022/10/24 12:33:08;;;;;;;;;;;;;;;;;;4922215;29;20359;-84
2022/10/24 12:35:33;;;;;;;;;;;;;;;;;;4938033;29;19914;-83
2022/10/24 12:37:59;;;;;;;;;;;;;;;;;;4921945;29;19925;-84
2022/10/24 12:40:24;;;;;;;;;;;;;;;;;;4922715;29;19981;-85
2022/10/24 12:42:50;;;;;;;;;;;;;;;;;;4905465;29;19928;-85
2022/10/24 12:45:16;;;;;;;;;;;;;;;;;;4937671;29;19921;-85
2022/10/24 12:47:41;;;;;;;;;;;;;;;;;;4938252;29;20001;-85
2022/10/24 12:50:07;;;;;;;;;;;;;;;;;;4905781;29;19961;-85
2022/10/24 12:52:32;;;;;;;;;;;;;;;;;;4921307;29;20404;-85
2022/10/24 12:54:58;;;;;;;;;;;;;;;;;;4937149;29;19943;-85
2022/10/24 12:57:23;;;;;;;;;;;;;;;;;;4905498;29;20290;-85
2022/10/24 12:59:49;;;;;;;;;;;;;;;;;;4917834;29;20383;-84
2022/10/24 13:02:14;;;;;;;;;;;;;;;;;;4903246;29;20283;-85
2022/10/24 13:04:39;;;;;;;;;;;;;;;;;;4902052;29;20520;-85
2022/10/24 13:07:05;;;;;;;;;;;;;;;;;;4886909;29;19916;-84
2022/10/24 13:09:31;;;;;;;;;;;;;;;;;;4901754;29;20399;-84
2022/10/24 13:11:57;;;;;;;;;;;;;;;;;;4886488;29;19923;-84
2022/10/24 13:14:22;;;;;;;;;;;;;;;;;;4901426;29;19919;-84
2022/10/24 13:16:48;;;;;;;;;;;;;;;;;;4918359;29;20403;-83
2022/10/24 13:19:13;;;;;;;;;;;;;;;;;;4916921;29;20294;-84
2022/10/24 13:21:39;;;;;;;;;;;;;;;;;;4905066;29;19915;-84
2022/10/24 13:24:04;;;;;;;;;;;;;;;;;;4936783;29;20339;-84
2022/10/24 13:26:30;;;;;;;;;;;;;;;;;;4935892;29;20327;-84
2022/10/24 13:28:58;;;;;;;;;;;;;;;;;;4904693;29;19915;-84
2022/10/24 13:31:24;;;;;;;;;;;;;;;;;;4920476;29;20279;-83
2022/10/24 13:33:50;;;;;;;;;;;;;;;;;;4936867;29;19949;-83
2022/10/24 13:36:18;;;;;;;;;;;;;;;;;;4920786;29;20359;-83
2022/10/24 13:38:45;;;;;;;;;;;;;;;;;;4920890;29;20009;-84
2022/10/24 13:41:10;;;;;;;;;;;;;;;;;;4896982;29;19918;-83
2022/10/24 13:43:36;;;;;;;;;;;;;;;;;;4919955;29;20080;-85
2022/10/24 13:46:02;;;;;;;;;;;;;;;;;;4918360;29;20039;-85
2022/10/24 13:48:27;;;;;;;;;;;;;;;;;;4887931;29;19915;-85
2022/10/24 13:50:53;;;;;;;;;;;;;;;;;;4887761;29;19915;-84
2022/10/24 13:53:18;;;;;;;;;;;;;;;;;;4901698;29;19925;-84
2022/10/24 13:55:45;;;;;;;;;;;;;;;;;;4903030;29;19917;-84
2022/10/24 13:58:10;;;;;;;;;;;;;;;;;;4902373;29;19915;-84
2022/10/24 14:00:36;;;;;;;;;;;;;;;;;;4904748;29;19915;-85
2022/10/24 14:03:01;;;;;;;;;;;;;;;;;;4889291;29;20267;-83
2022/10/24 14:05:27;;;;;;;;;;;;;;;;;;4907364;29;19915;-84
2022/10/24 14:07:52;;;;;;;;;;;;;;;;;;4893017;29;19930;-83
2022/10/24 14:10:18;;;;;;;;;;;;;;;;;;4893597;29;19961;-84
2022/10/24 14:12:44;;;;;;;;;;;;;;;;;;4905847;29;19915;-85
2022/10/24 14:15:09;;;;;;;;;;;;;;;;;;4924522;29;19998;-85
2022/10/24 14:17:35;;;;;;;;;;;;;;;;;;4891130;29;19922;-83
2022/10/24 14:20:00;;;;;;;;;;;;;;;;;;4932535;29;20442;-85
2022/10/24 14:22:26;;;;;;;;;;;;;;;;;;4941980;29;19943;-85
2022/10/24 14:24:55;;;;;;;;;;;;;;;;;;4935876;29;19915;-83
2022/10/24 14:27:21;;;;;;;;;;;;;;;;;;4905663;29;20260;-87
2022/10/24 14:29:46;;;;;;;;;;;;;;;;;;4900028;29;20264;-78
2022/10/24 14:32:12;;;;;;;;;;;;;;;;;;4899747;29;20364;-77
2022/10/24 14:34:38;;;;;;;;;;;;;;;;;;4901200;29;19926;-77
2022/10/24 14:37:04;;;;;;;;;;;;;;;;;;4902595;29;20303;-78
2022/10/24 14:39:29;;;;;;;;;;;;;;;;;;4899805;29;20413;-75
2022/10/24 14:41:57;;;;;;;;;;;;;;;;;;4927728;29;19915;-76
2022/10/24 14:44:22;;;;;;;;;;;;;;;;;;4933098;29;19921;-78
2022/10/24 14:46:48;;;;;;;;;;;;;;;;;;4918492;29;19914;-78
2022/10/24 14:49:13;;;;;;;;;;;;;;;;;;4918901;29;19978;-78
2022/10/24 14:51:39;;;;;;;;;;;;;;;;;;4917894;29;20367;-77
2022/10/24 14:54:06;;;;;;;;;;;;;;;;;;4902282;29;19919;-86
2022/10/24 14:56:31;;;;;;;;;;;;;;;;;;4934430;29;19957;-85
2022/10/24 14:58:57;;;;;;;;;;;;;;;;;;4918855;29;20001;-84
2022/10/24 15:01:22;;;;;;;;;;;;;;;;;;4903948;29;19934;-86
2022/10/24 15:03:48;;;;;;;;;;;;;;;;;;4918929;29;19915;-85
2022/10/24 15:06:17;;;;;;;;;;;;;;;;;;4918968;29;20294;-84
2022/10/24 15:08:47;;;;;;;;;;;;;;;;;;4918263;29;19918;-84
2022/10/24 15:11:12;;;;;;;;;;;;;;;;;;4902633;29;19919;-84
2022/10/24 15:13:38;;;;;;;;;;;;;;;;;;4917621;29;20386;-84
2022/10/24 15:16:03;;;;;;;;;;;;;;;;;;4918573;29;19937;-83
2022/10/24 15:18:29;;;;;;;;;;;;;;;;;;4903461;29;19922;-83
2022/10/24 15:20:54;;;;;;;;;;;;;;;;;;4934034;29;19914;-83
2022/10/24 15:23:20;;;;;;;;;;;;;;;;;;4933461;29;19915;-83
2022/10/24 15:25:46;;;;;;;;;;;;;;;;;;4918579;29;20243;-83
2022/10/24 15:28:11;;;;;;;;;;;;;;;;;;4917742;29;19918;-83
2022/10/24 15:30:36;;;;;;;;;;;;;;;;;;4898293;29;19922;-84
2022/10/24 15:33:02;;;;;;;;;;;;;;;;;;4929886;29;20454;-84
2022/10/24 15:35:27;;;;;;;;;;;;;;;;;;4918083;29;20330;-84
2022/10/24 15:37:53;;;;;;;;;;;;;;;;;;4927214;29;19915;-84
2022/10/24 15:40:19;;;;;;;;;;;;;;;;;;4941523;29;19994;-84
2022/10/24 15:42:44;;;;;;;;;;;;;;;;;;4928820;29;20275;-85
2022/10/24 15:45:10;;;;;;;;;;;;;;;;;;4914695;29;20349;-83
2022/10/24 15:47:35;;;;;;;;;;;;;;;;;;4918603;29;20339;-83
2022/10/24 15:50:01;;;;;;;;;;;;;;;;;;4927846;29;19915;-85
2022/10/24 15:52:26;;;;;;;;;;;;;;;;;;4933806;29;19946;-83
2022/10/24 15:54:52;;;;;;;;;;;;;;;;;;4916670;29;19926;-84
2022/10/24 15:57:17;;;;;;;;;;;;;;;;;;4918432;29;19919;-84
2022/10/24 15:59:43;;;;;;;;;;;;;;;;;;4903073;29;20067;-84
2022/10/24 16:02:08;;;;;;;;;;;;;;;;;;4932026;29;19926;-84
2022/10/24 16:04:39;;;;;;;;;;;;;;;;;;4936908;29;19915;-83
2022/10/24 16:07:04;;;;;;;;;;;;;;;;;;4921529;29;19926;-83
2022/10/24 16:09:30;;;;;;;;;;;;;;;;;;4919300;29;20332;-83
2022/10/24 16:11:56;;;;;;;;;;;;;;;;;;4902339;29;19919;-82
2022/10/24 16:14:21;;;;;;;;;;;;;;;;;;4918701;29;19994;-82
2022/10/24 16:16:47;;;;;;;;;;;;;;;;;;4902410;29;19915;-82
2022/10/24 16:19:12;;;;;;;;;;;;;;;;;;4919591;29;19919;-82
2022/10/24 16:21:38;;;;;;;;;;;;;;;;;;4933087;29;20355;-83
2022/10/24 16:24:03;;;;;;;;;;;;;;;;;;4918384;29;20372;-83
2022/10/24 16:26:29;;;;;;;;;;;;;;;;;;4920255;29;20404;-83
2022/10/24 16:28:55;;;;;;;;;;;;;;;;;;4920914;29;19961;-84
2022/10/24 16:31:23;;;;;;;;;;;;;;;;;;4938745;29;20010;-84
2022/10/24 16:33:49;;;;;;;;;;;;;;;;;;4949747;28;19926;-85
2022/10/24 16:36:14;;;;;;;;;;;;;;;;;;4902027;29;20291;-85
2022/10/24 16:38:40;;;;;;;;;;;;;;;;;;4920208;29;20466;-87
2022/10/24 16:41:05;;;;;;;;;;;;;;;;;;4919452;29;19915;-81
2022/10/24 16:43:31;;;;;;;;;;;;;;;;;;4918143;29;20528;-80
2022/10/24 16:45:57;;;;;;;;;;;;;;;;;;4917764;29;19923;-80
2022/10/24 16:48:22;;;;;;;;;;;;;;;;;;4886322;29;19922;-81
2022/10/24 16:50:47;;;;;;;;;;;;;;;;;;4901839;29;20039;-81
2022/10/24 16:53:16;;;;;;;;;;;;;;;;;;4916767;29;19919;-80
2022/10/24 16:55:42;;;;;;;;;;;;;;;;;;4918524;29;19915;-78
2022/10/24 16:58:08;;;;;;;;;;;;;;;;;;4931677;29;19911;-82
2022/10/24 17:00:33;;;;;;;;;;;;;;;;;;4901938;29;20397;-82
2022/10/24 17:02:58;;;;;;;;;;;;;;;;;;4901335;29;19922;-84
2022/10/24 17:05:24;;;;;;;;;;;;;;;;;;4900981;29;19926;-83
2022/10/24 17:07:50;;;;;;;;;;;;;;;;;;4916916;29;19916;-82
2022/10/24 17:10:15;;;;;;;;;;;;;;;;;;4901739;29;19980;-83
2022/10/24 17:12:41;;;;;;;;;;;;;;;;;;4917944;29;20365;-83
2022/10/24 17:15:06;;;;;;;;;;;;;;;;;;4933760;29;20373;-83
2022/10/24 17:17:32;;;;;;;;;;;;;;;;;;4955465;29;20392;-80
2022/10/24 17:19:58;;;;;;;;;;;;;;;;;;4955833;29;19957;-83
2022/10/24 17:22:23;;;;;;;;;;;;;;;;;;4956453;28;20207;-83
2022/10/24 17:24:49;;;;;;;;;;;;;;;;;;4939513;29;20069;-83
2022/10/24 17:27:14;;;;;;;;;;;;;;;;;;4939514;29;19922;-83
2022/10/24 17:29:40;;;;;;;;;;;;;;;;;;4923636;29;20009;-84
2022/10/24 17:32:05;;;;;;;;;;;;;;;;;;4945327;29;20009;-83
2022/10/24 17:34:31;;;;;;;;;;;;;;;;;;4935688;29;20389;-84
2022/10/24 17:36:56;;;;;;;;;;;;;;;;;;4920434;29;19914;-84
2022/10/24 17:39:22;;;;;;;;;;;;;;;;;;4936236;29;20348;-83
2022/10/24 17:41:48;;;;;;;;;;;;;;;;;;4935556;29;19915;-83
2022/10/24 17:44:13;;;;;;;;;;;;;;;;;;4935191;29;20018;-83
2022/10/24 17:46:38;;;;;;;;;;;;;;;;;;4937025;29;20405;-83
2022/10/24 17:49:04;;;;;;;;;;;;;;;;;;4919711;29;20287;-83
2022/10/24 17:51:35;;;;;;;;;;;;;;;;;;4919862;29;20024;-84
2022/10/24 17:54:01;;;;;;;;;;;;;;;;;;4919410;29;19919;-83
2022/10/24 17:56:26;;;;;;;;;;;;;;;;;;4919589;29;19914;-83
2022/10/24 17:58:52;;;;;;;;;;;;;;;;;;4937341;29;19919;-84
2022/10/24 18:01:19;;;;;;;;;;;;;;;;;;4919918;29;19915;-80
2022/10/24 18:03:44;;;;;;;;;;;;;;;;;;4919184;29;19926;-83
2022/10/24 18:06:11;;;;;;;;;;;;;;;;;;4919292;29;19915;-82
2022/10/24 18:08:36;;;;;;;;;;;;;;;;;;4935292;29;19915;-82
2022/10/24 18:11:02;;;;;;;;;;;;;;;;;;4936126;29;19925;-83
2022/10/24 18:13:27;;;;;;;;;;;;;;;;;;4902758;29;20334;-83
2022/10/24 18:15:53;;;;;;;;;;;;;;;;;;4934971;29;19921;-83
2022/10/24 18:18:18;;;;;;;;;;;;;;;;;;4918756;29;19966;-83
2022/10/24 18:20:44;;;;;;;;;;;;;;;;;;4919247;29;19950;-83